ラホール の空港の天気 - METARとTAF

ラホール国際空港 ( OPLA / LHE ) - パキスタン ラホール
飛行場実況気象(Metar)
観測時間10/18 12:55 PKT (10/18 07:55 UTC)
風向・風速東南東 3m/s
視程6000m
天気現象
全天の4割程度の雲 雲底高度 3050m
気温29℃
湿度40%
気圧1016hPa
METAROPLA 180755Z 12006KT 6000 SCT100 29/14 Q1016 NOSIG RMK QFE990 RMK A29.99
過去の天気等 Google飛行場航空写真 Wunderground天気予報

過去48時間のMETAR

飛行場予報(TAF)
発表時間: 10/18 08:45 PKT (10/18 03:45 UTC)
予報対象時間: 18日11時 PKT ~ 19日17時 PKT
風向・風速北西 5m/s
視程4000m
天気現象
全天の4割程度の雲 雲底高度 1220m
全天の4割程度の雲 雲底高度 3050m
18日11時 PKT ~ 18日16時 PKT に一時的に
風向・風速北西 10m/s 瞬間風速 15m/s
視程1500m
天気現象雷雨
少しの積乱雲 雲底高度 910m
全天の4割程度の雲 雲底高度 1220m
全天の8割程度の雲 雲底高度 3050m
19日6時 PKT ~ 19日10時 PKT に一時的に
風向・風速不定 1m/s
視程1500m
天気現象もや
TAF OPLA 180345Z 1806/1912 31010KT 4000 FU SCT040 SCT100 TX23/1810Z TN17/1824Z
TEMPO 1806/1811 32020G30KT 1500 TSRA FEW030CB SCT040 BKN100
TEMPO 1901/1905 VRB02KT 1500 BR